Time;durP1;ratioP1;P1;durP2;ratioP2;P2;SDS_P1;SDS_P2;PMS_P1;PMS_P2;Temp;Humidity;BMP_temperature;BMP_pressure;BME280_temperature;BME280_humidity;BME280_pressure;Samples;Min_cycle;Max_cycle;Signal;HPM_P1;HPM_P2
2023/03/21 00:01:21;;;;;;;22.17;19.80;;;;;;;;;;5018352;28;20192;-68
2023/03/21 00:03:48;;;;;;;22.13;19.93;;;;;;;;;;5025088;28;20947;-68
2023/03/21 00:06:13;;;;;;;25.63;22.37;;;;;;;;;;5021172;28;20596;-68
2023/03/21 00:08:39;;;;;;;23.70;21.20;;;;;;;;;;5022025;28;20458;-68
2023/03/21 00:11:06;;;;;;;24.80;22.20;;;;;;;;;;5022772;28;20286;-68
2023/03/21 00:13:31;;;;;;;22.90;20.50;;;;;;;;;;5016089;28;20913;-67
2023/03/21 00:16:02;;;;;;;23.07;20.60;;;;;;;;;;5014538;28;20435;-68
2023/03/21 00:18:27;;;;;;;23.67;21.17;;;;;;;;;;5015021;28;20208;-68
2023/03/21 00:20:59;;;;;;;23.80;21.30;;;;;;;;;;5016805;28;20443;-68
2023/03/21 00:23:25;;;;;;;23.23;20.83;;;;;;;;;;5021892;28;20200;-68
2023/03/21 00:25:51;;;;;;;22.00;19.80;;;;;;;;;;5025123;28;20441;-68
2023/03/21 00:28:16;;;;;;;22.67;20.27;;;;;;;;;;5024281;28;20489;-68
2023/03/21 00:30:41;;;;;;;21.73;19.00;;;;;;;;;;5026572;28;20227;-68
2023/03/21 00:33:07;;;;;;;21.70;19.40;;;;;;;;;;5025422;28;20652;-68
2023/03/21 00:35:32;;;;;;;20.50;18.30;;;;;;;;;;5025137;28;20223;-68
2023/03/21 00:37:57;;;;;;;20.10;18.00;;;;;;;;;;5028899;28;20192;-68
2023/03/21 00:40:22;;;;;;;19.60;17.50;;;;;;;;;;5029054;28;20184;-68
2023/03/21 00:42:48;;;;;;;18.63;16.60;;;;;;;;;;5030035;28;20183;-67
2023/03/21 00:45:14;;;;;;;18.10;16.20;;;;;;;;;;5029398;28;20275;-68
2023/03/21 00:47:39;;;;;;;18.17;15.87;;;;;;;;;;5028185;28;20231;-68
2023/03/21 00:50:06;;;;;;;19.37;16.10;;;;;;;;;;5028479;28;20959;-68
2023/03/21 00:52:31;;;;;;;17.87;15.97;;;;;;;;;;5028058;28;20180;-68
2023/03/21 00:54:56;;;;;;;17.63;15.83;;;;;;;;;;5017296;28;20533;-68
2023/03/21 00:57:22;;;;;;;18.57;16.70;;;;;;;;;;5020608;28;20204;-68
2023/03/21 00:59:47;;;;;;;18.63;16.73;;;;;;;;;;5019589;28;20203;-68
2023/03/21 01:02:13;;;;;;;19.50;17.50;;;;;;;;;;5020567;28;20330;-68
2023/03/21 01:04:38;;;;;;;19.73;17.63;;;;;;;;;;5023365;28;20180;-68
2023/03/21 01:07:04;;;;;;;21.03;18.73;;;;;;;;;;5026690;28;20975;-68
2023/03/21 01:09:29;;;;;;;22.77;20.37;;;;;;;;;;5022417;28;20811;-68
2023/03/21 01:11:54;;;;;;;20.63;18.53;;;;;;;;;;5021666;28;20236;-69
2023/03/21 01:14:21;;;;;;;21.70;19.43;;;;;;;;;;5017878;28;20238;-68
2023/03/21 01:16:46;;;;;;;22.47;20.17;;;;;;;;;;5022326;28;20180;-68
2023/03/21 01:19:13;;;;;;;20.57;18.37;;;;;;;;;;5018485;28;20500;-68
2023/03/21 01:21:39;;;;;;;20.50;18.30;;;;;;;;;;5020256;28;20275;-67
2023/03/21 01:24:05;;;;;;;21.10;18.87;;;;;;;;;;5018941;28;21621;-68
2023/03/21 01:26:30;;;;;;;22.03;19.83;;;;;;;;;;5020982;28;20603;-68
2023/03/21 01:28:55;;;;;;;21.97;19.77;;;;;;;;;;5027872;28;20699;-68
2023/03/21 01:31:20;;;;;;;21.70;19.50;;;;;;;;;;5027235;28;20211;-68
2023/03/21 01:33:46;;;;;;;21.87;19.50;;;;;;;;;;5027040;28;20718;-69
2023/03/21 01:36:16;;;;;;;22.47;20.03;;;;;;;;;;5027618;28;20173;-68
2023/03/21 01:38:42;;;;;;;22.00;19.80;;;;;;;;;;5028098;28;20266;-68
2023/03/21 01:41:12;;;;;;;21.10;19.00;;;;;;;;;;5027635;28;20820;-68
2023/03/21 01:43:38;;;;;;;22.43;20.20;;;;;;;;;;5025437;28;20184;-68
2023/03/21 01:46:19;;;;;;;23.27;20.90;;;;;;;;;;5027211;28;20469;-68
2023/03/21 01:48:46;;;;;;;22.30;20.03;;;;;;;;;;5027375;28;21128;-68
2023/03/21 01:51:11;;;;;;;21.87;19.67;;;;;;;;;;5026231;28;20474;-68
2023/03/21 01:53:37;;;;;;;22.57;20.27;;;;;;;;;;5026266;28;20817;-68
2023/03/21 01:56:07;;;;;;;20.47;18.37;;;;;;;;;;5018453;28;20551;-68
2023/03/21 01:58:34;;;;;;;21.60;19.10;;;;;;;;;;5018475;28;21288;-68
2023/03/21 02:00:59;;;;;;;20.03;18.07;;;;;;;;;;5018821;28;20932;-68
2023/03/21 02:03:28;;;;;;;20.50;18.30;;;;;;;;;;5020948;28;20449;-68
2023/03/21 02:06:01;;;;;;;17.37;15.57;;;;;;;;;;5020668;28;20531;-68
2023/03/21 02:08:27;;;;;;;18.13;16.23;;;;;;;;;;5023845;28;20475;-67
2023/03/21 02:10:53;;;;;;;17.10;15.40;;;;;;;;;;5020869;28;20463;-68
2023/03/21 02:13:18;;;;;;;18.43;16.57;;;;;;;;;;5021425;28;20497;-68
2023/03/21 02:15:49;;;;;;;17.37;15.57;;;;;;;;;;5018882;28;20235;-68
2023/03/21 02:18:53;;;;;;;17.90;16.10;;;;;;;;;;5016776;28;20462;-68
2023/03/21 02:21:37;;;;;;;18.33;15.70;;;;;;;;;;4999147;28;20486;-68
2023/03/21 02:24:21;;;;;;;17.83;15.97;;;;;;;;;;4984327;28;20487;-68
2023/03/21 02:26:52;;;;;;;17.70;15.90;;;;;;;;;;5011419;28;20538;-68
2023/03/21 02:29:36;;;;;;;17.60;15.07;;;;;;;;;;5020161;28;20985;-68
2023/03/21 02:32:08;;;;;;;16.67;14.13;;;;;;;;;;5020261;28;21195;-68
2023/03/21 02:34:53;;;;;;;16.80;15.00;;;;;;;;;;5016472;28;20439;-68
2023/03/21 02:37:21;;;;;;;20.30;16.23;;;;;;;;;;5020006;28;20435;-68
2023/03/21 02:40:11;;;;;;;21.97;16.33;;;;;;;;;;5017255;28;20435;-68
2023/03/21 02:42:42;;;;;;;16.77;14.00;;;;;;;;;;5019699;28;20450;-68
2023/03/21 02:45:10;;;;;;;22.30;16.30;;;;;;;;;;5020785;28;20430;-68
2023/03/21 02:47:35;;;;;;;21.30;15.80;;;;;;;;;;5011259;28;20553;-68
2023/03/21 02:50:03;;;;;;;23.77;16.43;;;;;;;;;;5020206;28;21017;-68
2023/03/21 02:52:30;;;;;;;25.23;16.17;;;;;;;;;;5018237;28;20177;-68
2023/03/21 02:54:57;;;;;;;26.37;18.10;;;;;;;;;;5017072;28;20816;-68
2023/03/21 02:57:22;;;;;;;25.53;18.23;;;;;;;;;;5017854;28;20450;-68
2023/03/21 02:59:49;;;;;;;27.87;16.87;;;;;;;;;;5017603;28;20500;-68
2023/03/21 03:02:15;;;;;;;32.73;19.03;;;;;;;;;;5022403;28;20187;-68
2023/03/21 03:04:40;;;;;;;28.20;17.80;;;;;;;;;;5016642;28;20435;-68
2023/03/21 03:07:06;;;;;;;30.50;19.80;;;;;;;;;;5019973;28;20438;-68
2023/03/21 03:09:40;;;;;;;32.73;19.23;;;;;;;;;;5019030;28;20338;-68
2023/03/21 03:12:24;;;;;;;35.60;20.93;;;;;;;;;;5019081;28;20662;-68
2023/03/21 03:14:56;;;;;;;32.33;19.20;;;;;;;;;;5018743;28;20431;-68
2023/03/21 03:17:22;;;;;;;42.93;23.47;;;;;;;;;;5014155;28;20455;-67
2023/03/21 03:19:53;;;;;;;37.17;21.63;;;;;;;;;;5016631;28;20430;-68
2023/03/21 03:22:24;;;;;;;41.00;22.77;;;;;;;;;;5025004;28;20200;-67
2023/03/21 03:25:07;;;;;;;34.90;21.93;;;;;;;;;;5022227;28;20468;-67
2023/03/21 03:27:35;;;;;;;38.20;22.30;;;;;;;;;;5021208;28;20481;-68
2023/03/21 03:30:01;;;;;;;38.90;23.47;;;;;;;;;;5023008;28;20458;-68
2023/03/21 03:32:33;;;;;;;40.17;22.83;;;;;;;;;;5019842;28;20415;-68
2023/03/21 03:34:58;;;;;;;42.37;23.10;;;;;;;;;;5023399;28;20525;-68
2023/03/21 03:37:25;;;;;;;34.90;21.23;;;;;;;;;;5019295;28;20890;-68
2023/03/21 03:40:00;;;;;;;35.83;22.30;;;;;;;;;;5026427;28;20192;-68
2023/03/21 03:42:44;;;;;;;40.20;21.93;;;;;;;;;;5021679;28;20466;-67
2023/03/21 03:45:10;;;;;;;32.93;21.37;;;;;;;;;;5017675;28;20474;-67
2023/03/21 03:48:01;;;;;;;29.63;20.93;;;;;;;;;;5048181;22;20980;-66
2023/03/21 03:50:29;;;;;;;30.53;21.20;;;;;;;;;;5045638;28;20243;-67
2023/03/21 03:52:56;;;;;;;30.00;20.37;;;;;;;;;;5042140;28;20440;-67
2023/03/21 03:55:25;;;;;;;29.60;20.20;;;;;;;;;;5046734;28;20438;-67
2023/03/21 03:57:51;;;;;;;27.63;20.70;;;;;;;;;;5048459;28;20886;-67
2023/03/21 04:00:17;;;;;;;29.50;21.37;;;;;;;;;;5048507;28;20442;-67
2023/03/21 04:02:42;;;;;;;30.00;20.03;;;;;;;;;;5047080;28;20464;-67
2023/03/21 04:05:08;;;;;;;27.50;19.77;;;;;;;;;;5044861;28;20188;-67
2023/03/21 04:07:34;;;;;;;24.47;18.73;;;;;;;;;;5043911;28;20211;-66
2023/03/21 04:09:59;;;;;;;30.53;20.10;;;;;;;;;;5052344;28;20277;-67
2023/03/21 04:12:24;;;;;;;28.00;20.67;;;;;;;;;;5054703;28;20181;-68
2023/03/21 04:14:50;;;;;;;26.47;19.57;;;;;;;;;;5062275;28;20233;-67
2023/03/21 04:17:16;;;;;;;26.67;19.80;;;;;;;;;;5044556;28;20250;-68
2023/03/21 04:19:41;;;;;;;33.20;20.73;;;;;;;;;;5061814;28;28114;-67
2023/03/21 04:22:06;;;;;;;25.60;19.63;;;;;;;;;;5047732;28;20241;-67
2023/03/21 04:24:32;;;;;;;24.40;20.20;;;;;;;;;;5046061;28;20174;-67
2023/03/21 04:26:58;;;;;;;25.60;20.07;;;;;;;;;;5044877;28;20669;-68
2023/03/21 04:29:24;;;;;;;27.40;21.97;;;;;;;;;;5053569;28;20676;-67
2023/03/21 04:31:49;;;;;;;24.60;19.47;;;;;;;;;;5065902;28;20516;-67
2023/03/21 04:34:15;;;;;;;28.80;22.87;;;;;;;;;;5049861;28;20195;-67
2023/03/21 04:36:48;;;;;;;27.33;21.30;;;;;;;;;;5048408;28;20175;-67
2023/03/21 04:39:13;;;;;;;23.20;19.27;;;;;;;;;;5050308;28;20511;-67
2023/03/21 04:41:39;;;;;;;24.00;20.37;;;;;;;;;;5049013;28;20430;-67
2023/03/21 04:44:05;;;;;;;27.40;20.50;;;;;;;;;;5047129;28;20184;-67
2023/03/21 04:46:30;;;;;;;25.57;19.30;;;;;;;;;;5042971;28;20192;-67
2023/03/21 04:48:55;;;;;;;24.57;19.80;;;;;;;;;;5051819;28;20799;-68
2023/03/21 04:51:21;;;;;;;26.17;19.33;;;;;;;;;;5052789;28;20208;-67
2023/03/21 04:53:48;;;;;;;25.47;19.30;;;;;;;;;;5050928;28;20651;-67
2023/03/21 04:56:14;;;;;;;24.80;19.17;;;;;;;;;;5053203;28;20171;-67
2023/03/21 04:58:40;;;;;;;22.17;17.80;;;;;;;;;;5048229;28;20448;-67
2023/03/21 05:01:06;;;;;;;24.57;19.97;;;;;;;;;;5052519;28;20461;-67
2023/03/21 05:03:33;;;;;;;23.23;19.00;;;;;;;;;;5047024;28;20279;-67
2023/03/21 05:06:01;;;;;;;22.37;18.37;;;;;;;;;;5044818;28;20192;-67
2023/03/21 05:08:26;;;;;;;20.33;18.13;;;;;;;;;;5048663;28;20539;-67
2023/03/21 05:10:52;;;;;;;22.60;17.73;;;;;;;;;;5052832;28;20541;-67
2023/03/21 05:13:17;;;;;;;20.63;17.10;;;;;;;;;;5058904;28;20223;-67
2023/03/21 05:15:43;;;;;;;21.70;16.90;;;;;;;;;;5055486;28;20674;-67
2023/03/21 05:18:09;;;;;;;22.43;16.70;;;;;;;;;;5049929;28;20199;-68
2023/03/21 05:20:35;;;;;;;19.20;15.83;;;;;;;;;;5050841;28;20428;-67
2023/03/21 05:23:00;;;;;;;20.27;16.70;;;;;;;;;;5048511;28;20517;-66
2023/03/21 05:25:33;;;;;;;20.00;17.77;;;;;;;;;;5051619;28;20552;-67
2023/03/21 05:28:00;;;;;;;19.33;15.97;;;;;;;;;;5054035;28;20198;-67
2023/03/21 05:30:27;;;;;;;23.00;16.43;;;;;;;;;;5056504;28;20457;-67
2023/03/21 05:32:52;;;;;;;24.07;16.70;;;;;;;;;;5052276;28;20437;-67
2023/03/21 05:35:17;;;;;;;19.37;17.23;;;;;;;;;;5054684;28;20415;-66
2023/03/21 05:37:42;;;;;;;21.67;17.63;;;;;;;;;;5053108;28;20222;-67
2023/03/21 05:40:08;;;;;;;23.07;17.57;;;;;;;;;;5049410;28;20179;-67
2023/03/21 05:42:34;;;;;;;22.23;16.43;;;;;;;;;;5056412;28;20287;-67
2023/03/21 05:44:59;;;;;;;20.63;17.33;;;;;;;;;;5053960;28;20947;-66
2023/03/21 05:47:24;;;;;;;26.50;21.50;;;;;;;;;;5055463;28;20215;-67
2023/03/21 05:49:50;;;;;;;21.73;17.60;;;;;;;;;;5039426;28;20203;-69
2023/03/21 05:52:15;;;;;;;23.30;18.53;;;;;;;;;;5054413;28;20480;-67
2023/03/21 05:54:41;;;;;;;22.53;18.00;;;;;;;;;;5056125;28;20175;-68
2023/03/21 05:57:09;;;;;;;23.27;17.43;;;;;;;;;;5050870;28;20175;-67
2023/03/21 05:59:35;;;;;;;20.90;17.80;;;;;;;;;;5045715;28;20429;-66
2023/03/21 06:02:00;;;;;;;22.07;16.37;;;;;;;;;;5048427;28;20676;-67
2023/03/21 06:04:25;;;;;;;21.07;16.33;;;;;;;;;;5047034;28;20182;-67
2023/03/21 06:06:52;;;;;;;21.13;16.00;;;;;;;;;;5039599;28;20184;-66
2023/03/21 06:09:18;;;;;;;18.90;15.90;;;;;;;;;;5044104;28;20208;-67
2023/03/21 06:11:46;;;;;;;16.17;13.90;;;;;;;;;;5041911;28;20947;-68
2023/03/21 06:14:11;;;;;;;17.50;15.60;;;;;;;;;;5054196;28;20216;-67
2023/03/21 06:16:36;;;;;;;19.87;15.13;;;;;;;;;;5051413;28;20978;-67
2023/03/21 06:19:02;;;;;;;23.33;16.27;;;;;;;;;;5038992;28;20202;-67
2023/03/21 06:21:27;;;;;;;19.20;14.57;;;;;;;;;;5052006;28;20661;-67
2023/03/21 06:23:52;;;;;;;19.30;14.67;;;;;;;;;;5051015;28;20208;-66
2023/03/21 06:26:22;;;;;;;18.90;15.60;;;;;;;;;;5043474;28;20173;-67
2023/03/21 06:28:51;;;;;;;18.00;14.70;;;;;;;;;;5042669;28;20202;-67
2023/03/21 06:31:16;;;;;;;18.93;15.17;;;;;;;;;;5048890;28;20709;-67
2023/03/21 06:33:41;;;;;;;17.10;14.30;;;;;;;;;;5054254;28;20442;-67
2023/03/21 06:36:10;;;;;;;17.20;13.60;;;;;;;;;;5055012;28;20171;-67
2023/03/21 06:38:36;;;;;;;17.87;15.17;;;;;;;;;;5048285;28;20252;-67
2023/03/21 06:41:06;;;;;;;17.13;13.77;;;;;;;;;;5056004;28;20440;-67
2023/03/21 06:43:32;;;;;;;17.50;13.50;;;;;;;;;;5063638;28;20522;-67
2023/03/21 06:45:57;;;;;;;17.87;14.57;;;;;;;;;;5055355;28;20529;-67
2023/03/21 06:48:23;;;;;;;17.20;14.40;;;;;;;;;;5053942;28;20533;-67
2023/03/21 06:50:49;;;;;;;16.90;13.07;;;;;;;;;;5057110;28;20735;-67
2023/03/21 06:53:14;;;;;;;17.10;13.83;;;;;;;;;;5055555;28;20654;-67
2023/03/21 06:55:40;;;;;;;18.20;13.97;;;;;;;;;;5054724;28;20446;-66
2023/03/21 06:58:05;;;;;;;16.03;12.90;;;;;;;;;;5051032;28;20192;-67
2023/03/21 07:00:31;;;;;;;18.20;14.50;;;;;;;;;;5051978;28;20688;-67
2023/03/21 07:02:57;;;;;;;15.87;14.17;;;;;;;;;;5051581;28;20764;-66
2023/03/21 07:05:22;;;;;;;16.70;13.67;;;;;;;;;;5057263;28;20418;-67
2023/03/21 07:07:48;;;;;;;17.00;14.83;;;;;;;;;;5054287;28;20441;-66
2023/03/21 07:10:13;;;;;;;16.20;13.43;;;;;;;;;;5057033;28;20200;-67
2023/03/21 07:12:38;;;;;;;18.67;14.83;;;;;;;;;;5056002;28;20190;-67
2023/03/21 07:15:05;;;;;;;17.23;14.43;;;;;;;;;;5057239;28;20260;-67
2023/03/21 07:17:30;;;;;;;24.33;14.00;;;;;;;;;;5051855;28;20196;-67
2023/03/21 07:19:56;;;;;;;15.80;14.20;;;;;;;;;;5052742;28;20490;-67
2023/03/21 07:22:21;;;;;;;15.20;13.40;;;;;;;;;;5047115;28;20646;-67
2023/03/21 07:24:47;;;;;;;15.40;13.10;;;;;;;;;;5055071;28;20187;-67
2023/03/21 07:27:13;;;;;;;14.60;12.63;;;;;;;;;;5052240;28;20183;-67
2023/03/21 07:29:39;;;;;;;14.43;13.03;;;;;;;;;;5052577;28;20199;-67
2023/03/21 07:32:05;;;;;;;14.30;12.80;;;;;;;;;;5050633;28;20412;-67
2023/03/21 07:34:32;;;;;;;14.77;13.27;;;;;;;;;;5053153;28;20463;-67
2023/03/21 07:36:58;;;;;;;14.20;12.47;;;;;;;;;;5055916;28;20255;-67
2023/03/21 07:39:23;;;;;;;15.27;13.67;;;;;;;;;;5047081;28;20553;-67
2023/03/21 07:41:48;;;;;;;14.40;12.90;;;;;;;;;;5050553;28;20229;-67
2023/03/21 07:44:13;;;;;;;14.43;12.30;;;;;;;;;;5054238;28;20200;-67
2023/03/21 07:46:39;;;;;;;14.50;12.87;;;;;;;;;;5055547;28;21027;-67
2023/03/21 07:49:05;;;;;;;15.30;13.80;;;;;;;;;;5067607;28;20680;-67
2023/03/21 07:51:30;;;;;;;13.77;12.47;;;;;;;;;;5047424;28;20196;-67
2023/03/21 07:53:56;;;;;;;15.43;13.83;;;;;;;;;;5053105;28;20681;-67
2023/03/21 07:56:21;;;;;;;15.80;14.30;;;;;;;;;;5054176;28;20180;-67
2023/03/21 07:58:46;;;;;;;15.20;13.80;;;;;;;;;;5052842;28;20671;-67
2023/03/21 08:01:11;;;;;;;15.47;13.97;;;;;;;;;;5053796;28;20729;-67
2023/03/21 08:03:37;;;;;;;15.53;14.03;;;;;;;;;;5067344;28;20176;-67
2023/03/21 08:06:02;;;;;;;14.73;13.33;;;;;;;;;;5053173;28;20180;-67
2023/03/21 08:08:28;;;;;;;15.53;13.93;;;;;;;;;;5051731;28;20274;-67
2023/03/21 08:10:53;;;;;;;14.60;13.13;;;;;;;;;;5053950;28;20210;-66
2023/03/21 08:13:18;;;;;;;14.97;13.47;;;;;;;;;;5044299;28;20262;-67
2023/03/21 08:15:44;;;;;;;15.43;13.93;;;;;;;;;;5054560;28;20211;-67
2023/03/21 08:18:09;;;;;;;16.00;14.40;;;;;;;;;;5049952;28;20271;-66
2023/03/21 08:20:35;;;;;;;16.43;14.73;;;;;;;;;;5053224;28;20300;-68
2023/03/21 08:23:00;;;;;;;15.07;13.57;;;;;;;;;;5052699;28;20186;-68
2023/03/21 08:25:25;;;;;;;14.73;13.27;;;;;;;;;;5040659;28;20183;-68
2023/03/21 08:27:51;;;;;;;13.40;12.07;;;;;;;;;;5052495;28;20238;-67
2023/03/21 08:30:17;;;;;;;16.27;14.20;;;;;;;;;;5066584;28;20297;-67
2023/03/21 08:32:43;;;;;;;14.33;12.83;;;;;;;;;;5053335;28;20187;-67
2023/03/21 08:35:10;;;;;;;14.37;12.97;;;;;;;;;;5052846;28;20409;-67
2023/03/21 08:37:36;;;;;;;14.33;12.93;;;;;;;;;;5056775;28;20195;-67
2023/03/21 08:40:01;;;;;;;13.60;12.23;;;;;;;;;;5051675;28;20908;-68
2023/03/21 08:42:27;;;;;;;15.53;13.40;;;;;;;;;;5046020;28;20421;-67
2023/03/21 08:44:52;;;;;;;14.20;12.70;;;;;;;;;;5048718;28;20450;-67
2023/03/21 08:47:18;;;;;;;13.57;12.20;;;;;;;;;;5052883;28;20603;-69
2023/03/21 08:49:44;;;;;;;13.03;11.83;;;;;;;;;;5050112;28;20211;-68
2023/03/21 08:52:10;;;;;;;12.23;11.03;;;;;;;;;;5054520;28;20175;-69
2023/03/21 08:54:35;;;;;;;14.07;12.17;;;;;;;;;;5065999;28;20491;-69
2023/03/21 08:57:00;;;;;;;13.43;12.03;;;;;;;;;;5053910;28;20178;-68
2023/03/21 08:59:25;;;;;;;12.80;11.50;;;;;;;;;;5055449;28;20843;-69
2023/03/21 09:01:51;;;;;;;11.67;10.57;;;;;;;;;;5054475;28;20653;-68
2023/03/21 09:04:17;;;;;;;13.60;11.10;;;;;;;;;;5048843;28;20175;-68
2023/03/21 09:06:44;;;;;;;11.43;10.30;;;;;;;;;;5052042;28;20564;-68
2023/03/21 09:09:10;;;;;;;10.00;9.00;;;;;;;;;;5069068;28;20933;-68
2023/03/21 09:11:35;;;;;;;11.93;10.63;;;;;;;;;;5055823;28;20461;-68
2023/03/21 09:14:00;;;;;;;10.50;8.87;;;;;;;;;;5043402;28;20195;-68
2023/03/21 09:16:26;;;;;;;10.60;9.53;;;;;;;;;;5054660;28;20741;-68
2023/03/21 09:18:54;;;;;;;9.80;8.90;;;;;;;;;;5050815;28;20278;-68
2023/03/21 09:21:21;;;;;;;9.73;8.73;;;;;;;;;;5058995;28;20195;-68
2023/03/21 09:23:51;;;;;;;8.90;8.00;;;;;;;;;;5056101;28;20417;-68
2023/03/21 09:26:18;;;;;;;9.20;8.30;;;;;;;;;;5043590;28;20978;-68
2023/03/21 09:28:45;;;;;;;9.03;7.73;;;;;;;;;;5049668;28;20786;-68
2023/03/21 09:31:10;;;;;;;8.10;7.30;;;;;;;;;;5057277;28;20497;-67
2023/03/21 09:33:37;;;;;;;7.93;7.17;;;;;;;;;;5055234;28;20874;-66
2023/03/21 09:36:05;;;;;;;8.10;7.27;;;;;;;;;;5050145;28;20467;-68
2023/03/21 09:38:35;;;;;;;6.40;5.80;;;;;;;;;;5053660;28;20468;-67
2023/03/21 09:41:12;;;;;;;7.50;6.80;;;;;;;;;;5056770;28;20502;-67
2023/03/21 09:43:45;;;;;;;6.80;6.10;;;;;;;;;;5051771;28;20452;-68
2023/03/21 09:46:14;;;;;;;8.17;7.20;;;;;;;;;;5057915;28;20430;-68
2023/03/21 09:48:53;;;;;;;7.70;7.00;;;;;;;;;;5049966;28;20452;-67
2023/03/21 09:51:19;;;;;;;8.27;7.37;;;;;;;;;;5055528;28;20986;-67
2023/03/21 09:53:47;;;;;;;7.07;6.13;;;;;;;;;;5055368;28;20418;-68
2023/03/21 09:56:13;;;;;;;7.13;6.43;;;;;;;;;;5055648;28;20430;-67
2023/03/21 09:58:41;;;;;;;7.37;6.67;;;;;;;;;;5056656;22;20544;-79
2023/03/21 10:01:21;;;;;;;6.80;6.20;;;;;;;;;;5029593;28;20263;-79
2023/03/21 10:03:49;;;;;;;7.53;6.83;;;;;;;;;;5027804;28;20434;-78
2023/03/21 10:06:15;;;;;;;9.40;6.97;;;;;;;;;;5038748;28;20438;-78
2023/03/21 10:08:41;;;;;;;7.33;6.53;;;;;;;;;;5036065;28;20443;-78
2023/03/21 10:11:17;;;;;;;6.93;6.23;;;;;;;;;;5036078;28;21072;-78
2023/03/21 10:13:47;;;;;;;6.90;6.00;;;;;;;;;;5023389;28;20446;-78
2023/03/21 10:16:33;;;;;;;7.33;6.23;;;;;;;;;;5030337;28;20496;-78
2023/03/21 10:19:01;;;;;;;9.07;8.20;;;;;;;;;;5035683;28;20504;-78
2023/03/21 10:21:27;;;;;;;8.20;7.40;;;;;;;;;;5038559;28;20426;-78
2023/03/21 10:23:53;;;;;;;6.63;6.03;;;;;;;;;;5029654;28;20435;-78
2023/03/21 10:26:20;;;;;;;8.73;6.87;;;;;;;;;;5035930;28;20230;-78
2023/03/21 10:28:47;;;;;;;8.30;7.47;;;;;;;;;;5029860;28;20438;-78
2023/03/21 10:31:15;;;;;;;7.17;6.47;;;;;;;;;;5035359;28;20462;-78
2023/03/21 10:33:45;;;;;;;8.33;7.53;;;;;;;;;;5034765;28;20419;-78
2023/03/21 10:36:11;;;;;;;9.10;7.40;;;;;;;;;;5026329;28;20504;-78
2023/03/21 10:38:38;;;;;;;8.80;7.90;;;;;;;;;;5034139;28;21020;-78
2023/03/21 10:41:04;;;;;;;10.20;8.60;;;;;;;;;;5033644;28;20427;-77
2023/03/21 10:43:34;;;;;;;11.90;9.53;;;;;;;;;;5035783;28;20499;-78
2023/03/21 10:46:05;;;;;;;10.00;8.43;;;;;;;;;;5035620;28;20179;-77
2023/03/21 10:48:33;;;;;;;9.87;8.53;;;;;;;;;;5035518;28;20431;-78
2023/03/21 10:50:59;;;;;;;11.33;9.00;;;;;;;;;;5035333;28;20495;-78
2023/03/21 10:53:28;;;;;;;9.77;8.80;;;;;;;;;;5037052;28;20842;-77
2023/03/21 10:55:56;;;;;;;15.23;8.37;;;;;;;;;;5036452;28;20188;-78
2023/03/21 10:58:26;;;;;;;13.87;9.73;;;;;;;;;;5034223;28;20470;-78
2023/03/21 11:01:02;;;;;;;12.27;9.20;;;;;;;;;;5031333;28;20414;-78
2023/03/21 11:03:34;;;;;;;13.00;9.43;;;;;;;;;;5033623;28;20925;-82
2023/03/21 11:06:20;;;;;;;13.73;10.13;;;;;;;;;;5035601;28;20513;-77
2023/03/21 11:09:04;;;;;;;12.50;9.10;;;;;;;;;;5024550;28;20469;-78
2023/03/21 11:11:34;;;;;;;12.63;9.70;;;;;;;;;;5036693;28;20980;-77
2023/03/21 11:14:05;;;;;;;11.80;8.90;;;;;;;;;;5034385;28;20441;-78
2023/03/21 11:16:35;;;;;;;13.60;10.00;;;;;;;;;;5037566;28;20414;-78
2023/03/21 11:19:01;;;;;;;11.97;10.30;;;;;;;;;;5032725;28;20446;-78
2023/03/21 11:21:27;;;;;;;15.53;11.37;;;;;;;;;;5040835;28;20438;-77
2023/03/21 11:23:53;;;;;;;14.90;11.47;;;;;;;;;;5033691;28;20439;-78
2023/03/21 11:26:35;;;;;;;14.20;10.60;;;;;;;;;;5026697;28;20431;-77
2023/03/21 11:29:07;;;;;;;15.83;10.90;;;;;;;;;;5028770;28;20461;-77
2023/03/21 11:31:37;;;;;;;17.53;12.10;;;;;;;;;;5027924;28;20475;-78
2023/03/21 11:34:05;;;;;;;17.13;12.33;;;;;;;;;;5033608;28;20414;-77
2023/03/21 11:36:37;;;;;;;19.60;13.00;;;;;;;;;;5033509;28;20422;-76
2023/03/21 11:39:14;;;;;;;18.27;13.00;;;;;;;;;;5035001;28;20431;-77
2023/03/21 11:41:41;;;;;;;19.67;12.40;;;;;;;;;;5034456;28;20414;-76
2023/03/21 11:44:22;;;;;;;18.70;14.13;;;;;;;;;;5034809;28;20429;-77
2023/03/21 11:46:47;;;;;;;19.40;13.13;;;;;;;;;;5031245;28;21008;-77
2023/03/21 11:49:12;;;;;;;15.70;12.93;;;;;;;;;;5029543;28;20477;-77
2023/03/21 11:51:47;;;;;;;22.60;14.30;;;;;;;;;;5049019;28;20236;-78
2023/03/21 11:54:25;;;;;;;20.03;13.60;;;;;;;;;;5025963;28;20237;-77
2023/03/21 11:56:53;;;;;;;21.30;13.63;;;;;;;;;;5036573;28;20419;-77
2023/03/21 11:59:29;;;;;;;17.93;13.43;;;;;;;;;;5029785;28;20461;-78
2023/03/21 12:01:57;;;;;;;18.10;12.80;;;;;;;;;;5035066;28;20418;-77
2023/03/21 12:04:32;;;;;;;21.27;13.70;;;;;;;;;;5036561;28;20425;-76
2023/03/21 12:07:07;;;;;;;22.10;13.17;;;;;;;;;;5051166;28;20479;-78
2023/03/21 12:09:38;;;;;;;21.67;12.90;;;;;;;;;;5033919;28;20481;-77
2023/03/21 12:12:22;;;;;;;15.70;11.80;;;;;;;;;;5036053;28;20446;-77
2023/03/21 12:15:00;;;;;;;15.33;11.20;;;;;;;;;;5026263;28;20411;-77
2023/03/21 12:17:34;;;;;;;16.90;11.27;;;;;;;;;;5031158;28;20560;-78
2023/03/21 12:19:59;;;;;;;17.13;10.37;;;;;;;;;;5031623;28;20492;-77
2023/03/21 12:22:34;;;;;;;13.97;9.67;;;;;;;;;;5035632;28;20418;-77
2023/03/21 12:25:05;;;;;;;13.37;9.47;;;;;;;;;;5032116;28;20622;-78
2023/03/21 12:27:36;;;;;;;13.97;9.47;;;;;;;;;;5032868;28;20609;-77
2023/03/21 12:30:25;;;;;;;18.17;10.20;;;;;;;;;;5033911;28;20493;-78
2023/03/21 12:32:59;;;;;;;14.30;10.30;;;;;;;;;;5047083;28;20418;-78
2023/03/21 12:35:34;;;;;;;12.53;9.43;;;;;;;;;;5038979;28;20441;-78
2023/03/21 12:38:28;;;;;;;14.30;10.33;;;;;;;;;;5034816;28;20446;-78
2023/03/21 12:41:03;;;;;;;16.80;9.60;;;;;;;;;;5021155;28;20520;-78
2023/03/21 12:44:01;;;;;;;17.30;10.20;;;;;;;;;;5037342;28;20510;-78
2023/03/21 12:46:26;;;;;;;11.77;9.50;;;;;;;;;;4992928;28;20503;-80
2023/03/21 12:48:51;;;;;;;16.57;10.20;;;;;;;;;;5039438;28;20438;-78
2023/03/21 12:51:18;;;;;;;16.43;11.00;;;;;;;;;;5036390;28;20301;-78
2023/03/21 12:53:48;;;;;;;14.50;10.47;;;;;;;;;;5041791;28;20266;-79
2023/03/21 12:56:22;;;;;;;17.23;10.83;;;;;;;;;;5038919;28;20414;-78
2023/03/21 12:58:51;;;;;;;16.90;11.10;;;;;;;;;;5033098;28;20472;-79
2023/03/21 13:01:18;;;;;;;18.40;10.40;;;;;;;;;;5037638;28;20592;-78
2023/03/21 13:03:49;;;;;;;21.10;11.17;;;;;;;;;;5036454;28;20433;-79
2023/03/21 13:06:17;;;;;;;14.43;10.33;;;;;;;;;;5038872;28;20513;-79
2023/03/21 13:08:51;;;;;;;15.40;10.60;;;;;;;;;;5037359;28;20560;-79
2023/03/21 13:11:20;;;;;;;15.13;10.50;;;;;;;;;;5039362;28;20492;-79
2023/03/21 13:13:45;;;;;;;12.80;9.43;;;;;;;;;;5039046;28;20991;-79
2023/03/21 13:16:13;;;;;;;19.27;10.60;;;;;;;;;;5038953;28;21140;-79
2023/03/21 13:18:38;;;;;;;16.23;10.27;;;;;;;;;;5035802;28;21819;-79
2023/03/21 13:21:09;;;;;;;14.80;9.70;;;;;;;;;;5035911;28;20509;-78
2023/03/21 13:23:36;;;;;;;14.67;9.70;;;;;;;;;;5037621;28;20224;-79
2023/03/21 13:26:02;;;;;;;16.33;8.90;;;;;;;;;;5038727;28;20417;-79
2023/03/21 13:28:28;;;;;;;15.10;9.13;;;;;;;;;;5039551;28;20445;-79
2023/03/21 13:31:13;;;;;;;13.53;8.53;;;;;;;;;;5035624;28;20558;-79
2023/03/21 13:33:43;;;;;;;15.90;9.47;;;;;;;;;;5036233;28;20415;-79
2023/03/21 13:36:12;;;;;;;12.93;8.93;;;;;;;;;;5037641;28;20430;-80
2023/03/21 13:38:40;;;;;;;11.23;8.70;;;;;;;;;;5039479;28;20447;-79
2023/03/21 13:41:11;;;;;;;15.40;9.50;;;;;;;;;;5032368;28;20470;-79
2023/03/21 13:43:50;;;;;;;13.37;8.70;;;;;;;;;;5035501;28;20419;-81
2023/03/21 13:46:24;;;;;;;12.83;8.60;;;;;;;;;;5029364;28;21197;-80
2023/03/21 13:48:54;;;;;;;12.40;8.13;;;;;;;;;;5047226;28;20454;-79
2023/03/21 13:51:35;;;;;;;14.77;8.13;;;;;;;;;;5045398;28;20469;-84
2023/03/21 13:54:16;;;;;;;15.73;7.93;;;;;;;;;;5028418;28;20542;-80
2023/03/21 13:56:47;;;;;;;15.67;7.13;;;;;;;;;;5035531;28;21129;-83
2023/03/21 13:59:17;;;;;;;12.87;8.37;;;;;;;;;;5039745;28;20471;-81
2023/03/21 14:01:59;;;;;;;14.23;8.70;;;;;;;;;;5033989;28;20518;-81
2023/03/21 14:04:30;;;;;;;15.43;7.57;;;;;;;;;;5038056;28;20539;-81
2023/03/21 14:06:55;;;;;;;14.60;8.93;;;;;;;;;;5035666;28;20431;-79
2023/03/21 14:09:29;;;;;;;15.80;8.40;;;;;;;;;;5031706;28;21061;-79
2023/03/21 14:11:55;;;;;;;13.90;7.40;;;;;;;;;;5028448;28;20302;-84
2023/03/21 14:14:22;;;;;;;13.83;7.60;;;;;;;;;;5034830;28;20428;-79
2023/03/21 14:16:48;;;;;;;13.10;7.30;;;;;;;;;;5031596;28;20431;-80
2023/03/21 14:19:13;;;;;;;14.37;8.03;;;;;;;;;;5033060;28;20466;-80
2023/03/21 14:21:44;;;;;;;11.57;8.20;;;;;;;;;;5029541;28;20211;-79
2023/03/21 14:24:13;;;;;;;18.23;8.30;;;;;;;;;;5026225;28;20563;-82
2023/03/21 14:26:46;;;;;;;12.20;7.93;;;;;;;;;;5026737;28;20439;-82
2023/03/21 14:29:18;;;;;;;12.13;7.10;;;;;;;;;;5024993;28;20450;-79